• Join FlightAware (Why Join?)
  • Login
  • US Flag 
10:27PM EDT


 

Airport Tracker/Info


-or-


 

Live Flight TrackerFlight Track Log ✈ DAL374 ✈ 27-Aug-2013 ✈ KATL - KDCA

Flight Track Log - Related Links

Times and Time Zones

All times are in EDT time to prevent confusion due to time zone crossing. See the DAL374 flight status page for this flight to view local times or setup timezone preferences in your user account.

Time Position Orientation Groundspeed Altitude Reporting Facility
EDT Latitude Longitude Course Direction KTS MPH feet Rate Location/Type
08:41PM 33.6328 -84.4778 48° Northeast 473 544 2,600  Level Atlanta Center
08:42PM 33.6033 -84.5475 243° Southwest 304 350 3,900 1,860 Climbing Atlanta Center
08:43PM 33.5406 -84.5847 206° Southwest 263 303 6,400 3,000 Climbing Atlanta Center
08:44PM 33.4675 -84.5617 165° South 285 328 9,900 2,400 Climbing Atlanta Center
08:45PM 33.7778 -83.9317 54° Northeast  Level FlightAware Approximate
08:45PM 33.4575 -84.4622 97° East 249 287 11,200  Level Atlanta Center
08:46PM 33.8413 -83.8258 54° Northeast  Level FlightAware Approximate
08:46PM 33.4536 -84.3550 92° East 296 341 12,500  Level Atlanta Center
08:47PM 33.9103 -83.7252 48° Northeast  Level FlightAware Approximate
08:47PM 33.4997 -84.2481 63° Northeast 358 412 14,100  Level Atlanta Center
08:48PM 33.5958 -84.1833 29° Northeast 364 419 16,300 2,100 Climbing Atlanta Center
08:49PM 33.6942 -84.1211 28° Northeast 384 442 18,300 1,680 Climbing Atlanta Center
08:50PM 33.7714 -84.0214 47° Northeast 399 459 19,700 1,440 Climbing Atlanta Center
08:51PM 33.8339 -83.9036 57° Northeast 404 465 21,200 1,200 Climbing Atlanta Center
08:52PM 33.8961 -83.7811 59° Northeast 422 486 22,200 1,200 Climbing Atlanta Center
08:53PM 33.9647 -83.6581 56° Northeast 438 504 23,600 1,320 Climbing Atlanta Center
08:54PM 34.0417 -83.5400 52° Northeast 444 511 24,900 660 Climbing Atlanta Center
08:55PM 34.1161 -83.4189 53° Northeast 449 517 25,000  Climbing Atlanta Center
08:56PM 34.1886 -83.3031 53° Northeast 443 510 25,000  Level Atlanta Center
08:57PM 34.2692 -83.1742 53° Northeast 443 510 25,000  Level Atlanta Center
08:58PM 34.3414 -83.0525 54° Northeast 443 510 25,000  Level Atlanta Center
08:59PM 34.4156 -82.9383 52° Northeast 433 498 25,000  Level Atlanta Center
09:00PM 34.4853 -82.8242 53° Northeast 428 493 25,000  Level Atlanta Center
09:01PM 34.5531 -82.7147 53° Northeast 414 476 25,000  Level Atlanta Center
09:02PM 34.6250 -82.6050 51° Northeast 414 476 25,000  Level Atlanta Center
09:03PM 34.6842 -82.5031 55° Northeast 414 476 25,000  Level Atlanta Center
09:04PM 34.7639 -82.3675 54° Northeast 427 491 25,000  Level Atlanta Center
09:05PM 34.8414 -82.2469 52° Northeast 433 498 25,000  Level Atlanta Center
09:06PM 34.9003 -82.1469 54° Northeast 446 513 25,000  Level Atlanta Center
09:07PM 34.9919 -82.0003 53° Northeast 451 519 25,000  Level Atlanta Center
09:08PM 35.0650 -81.8767 54° Northeast 456 525 25,000  Level Atlanta Center
09:09PM 35.1314 -81.7456 58° Northeast 451 519 25,000  Level Atlanta Center
09:10PM 35.2019 -81.6164 56° Northeast 451 519 25,000  Level Atlanta Center
09:11PM 35.2703 -81.4847 58° Northeast 457 526 25,000  Level Atlanta Center
09:12PM 35.3383 -81.3503 58° Northeast 457 526 25,000  Level Atlanta Center
09:13PM 35.4042 -81.2181 59° Northeast 457 526 25,000  Level Atlanta Center
09:14PM 35.4761 -81.0831 57° Northeast 466 536 25,000  Level Atlanta Center
09:15PM 35.5458 -80.9503 57° Northeast 461 531 25,000  Level Atlanta Center
09:16PM 35.6156 -80.8200 57° Northeast 461 531 25,000  Level Atlanta Center
09:17PM 35.6831 -80.6869 58° Northeast 461 531 25,000  Level Atlanta Center
09:18PM 35.7522 -80.5561 57° Northeast 461 531 25,000  Level Atlanta Center
09:19PM 35.8192 -80.4200 59° Northeast 461 531 25,000  Level Atlanta Center
09:20PM 35.8864 -80.2917 57° Northeast 461 531 25,000  Level Atlanta Center
09:23PM 36.0397 -79.9922 58° Northeast 457 526 25,000  Level Washington Center
09:24PM 36.1133 -79.8628 55° Northeast 457 526 25,000  Level Washington Center
09:25PM 36.1933 -79.7178 56° Northeast 457 526 25,000  Level Washington Center
09:26PM 36.2600 -79.6028 54° Northeast 457 526 25,000  Level Washington Center
09:27PM 36.3375 -79.4622 56° Northeast 451 519 25,000  Level Washington Center
09:28PM 36.4086 -79.3317 56° Northeast 451 519 25,000  Level Washington Center
09:29PM 36.4747 -79.2161 55° Northeast 451 519 25,000  Level Washington Center
09:30PM 36.5561 -79.0775 54° Northeast 451 519 25,000  Level Washington Center
09:31PM 36.6264 -78.9514 55° Northeast 445 512 25,000  Level Washington Center
09:32PM 36.6969 -78.8144 57° Northeast 451 519 25,000  Level Washington Center
09:33PM 36.7669 -78.6878 55° Northeast 451 519 25,000  Level Washington Center
09:34PM 36.8392 -78.5583 55° Northeast 451 519 25,000  Level Washington Center
09:35PM 36.9089 -78.4311 56° Northeast 451 519 25,000 -180 Level Washington Center
09:36PM 36.9764 -78.3114 55° Northeast 451 519 24,700 -600 Descending Washington Center
09:37PM 37.0658 -78.2261 37° Northeast 426 490 23,800 -1,020 Descending Washington Center
09:38PM 37.1658 -78.1408 34° Northeast 407 468 22,700 -960 Descending Washington Center
09:39PM 37.2572 -78.0631 34° Northeast 395 455 22,000 -360 Descending Washington Center
09:40PM 37.3486 -77.9850 34° Northeast 390 449 22,000  Level Washington Center
09:41PM 37.4397 -77.9042 35° Northeast 390 449 22,000  Level Washington Center
09:42PM 37.5308 -77.8256 34° Northeast 390 449 22,000 -60 Level Washington Center
09:43PM 37.6242 -77.7472 34° Northeast 390 449 21,900 -540 Descending Washington Center
09:44PM 37.7131 -77.6656 36° Northeast 395 455 21,000 -960 Descending Washington Center
09:45PM 37.8022 -77.5867 35° Northeast 395 455 20,000 -1,020 Descending Washington Center
09:46PM 37.8908 -77.5100 34° Northeast 390 449 19,000 -1,320 Descending Washington Center
09:47PM 37.9778 -77.4358 34° Northeast 385 443 17,400 -1,920 Descending Washington Center
09:48PM 38.0622 -77.3639 34° Northeast 380 437 15,100 -2,280 Descending Washington Center
09:49PM 38.1444 -77.2894 35° Northeast 370 426 12,900 -2,400 Descending Washington Center
09:50PM 38.2269 -77.2172 35° Northeast 365 420 10,400 -1,500 Descending Washington Center
09:51PM 38.3028 -77.1500 35° Northeast 351 404 10,000 -1,080 Descending Washington Center
09:52PM 38.3781 -77.1411 North 300 345 8,300 -2,040 Descending Washington Center
09:53PM 38.4533 -77.1267 North 282 325 6,000 -2,160 Descending Washington Center
09:54PM 38.5286 -77.1122 North 277 319 4,000 -1,140 Descending Washington Center
09:55PM 38.5975 -77.0953 11° North 270 311 3,800 -540 Descending Washington Center
09:56PM 38.6667 -77.0667 18° North 224 258 3,000 -840 Descending Potomac TRACON
09:57PM 38.7167 -77.0333 27° Northeast 197 227 2,200 -720 Descending Potomac TRACON
09:58PM 38.7667 -77.0333 360° North 173 199 1,600 -780 Descending Potomac TRACON
09:59PM 38.8000 -77.0333 360° North 147 169 700 -900 Descending Potomac TRACON